0NC5 weather

Nash General Hospital Heliport
Rocky Mount, North Carolina, United States

Public forecast

Using degrees Fahrenheit for public forecast. Weather courtesy of forecast.io.

METAR (pilot weather report)

Closest report is Rocky Mount Wilson Regional Airport, 6.3 nm (11.6 km) SW. Retrieved 2019/06/27 10:53 UTC (32 minutes ago):

KRWI 271053Z AUTO 00000KT 8SM CLR 21/21 A3017 RMK AO2 SLP216 T02110206

TAF (pilot weather forecast)

Closest forecast is Rocky Mount Wilson Regional Airport, 6.3 nm (11.6 km) SW. Retrieved 2019/06/27 06:42 UTC (5 hours ago):

TAF KRWI 270540Z 2706/2806 VRB04KT P6SM BKN250 FM271300 VRB04KT P6SM SCT250 FM271900 12004KT P6SM SCT060 BKN250 FM280300 20002KT P6SM SCT250